sensor_id;sensor_type;location;lat;lon;timestamp;temperature;humidity
39621;DHT22;25309;48.686;9.170;2023-02-01T00:01:04;2.90;99.90
39621;DHT22;25309;48.686;9.170;2023-02-01T00:03:31;2.80;99.90
39621;DHT22;25309;48.686;9.170;2023-02-01T00:05:59;2.80;99.90
39621;DHT22;25309;48.686;9.170;2023-02-01T00:08:26;2.90;99.90
39621;DHT22;25309;48.686;9.170;2023-02-01T00:10:59;2.80;99.90
39621;DHT22;25309;48.686;9.170;2023-02-01T00:13:28;2.80;99.90
39621;DHT22;25309;48.686;9.170;2023-02-01T00:16:03;2.80;99.90
39621;DHT22;25309;48.686;9.170;2023-02-01T00:18:30;2.80;99.90
39621;DHT22;25309;48.686;9.170;2023-02-01T00:20:57;2.80;99.90
39621;DHT22;25309;48.686;9.170;2023-02-01T00:23:24;2.80;99.90
39621;DHT22;25309;48.686;9.170;2023-02-01T00:25:51;2.80;99.90
39621;DHT22;25309;48.686;9.170;2023-02-01T00:28:19;2.80;99.90
39621;DHT22;25309;48.686;9.170;2023-02-01T00:30:46;2.80;99.90
39621;DHT22;25309;48.686;9.170;2023-02-01T00:33:13;2.80;99.90
39621;DHT22;25309;48.686;9.170;2023-02-01T00:35:40;2.80;99.90
39621;DHT22;25309;48.686;9.170;2023-02-01T00:38:07;2.80;99.90
39621;DHT22;25309;48.686;9.170;2023-02-01T00:40:34;2.80;99.90
39621;DHT22;25309;48.686;9.170;2023-02-01T00:43:01;2.80;99.90
39621;DHT22;25309;48.686;9.170;2023-02-01T00:45:29;2.90;99.90
39621;DHT22;25309;48.686;9.170;2023-02-01T00:47:56;2.90;99.90
39621;DHT22;25309;48.686;9.170;2023-02-01T00:50:23;2.90;99.90
39621;DHT22;25309;48.686;9.170;2023-02-01T00:52:51;3.00;99.90
39621;DHT22;25309;48.686;9.170;2023-02-01T00:55:18;3.00;99.90
39621;DHT22;25309;48.686;9.170;2023-02-01T00:57:44;3.00;99.90
39621;DHT22;25309;48.686;9.170;2023-02-01T01:00:12;3.00;99.90
39621;DHT22;25309;48.686;9.170;2023-02-01T01:02:41;3.00;99.90
39621;DHT22;25309;48.686;9.170;2023-02-01T01:05:08;3.00;99.90
39621;DHT22;25309;48.686;9.170;2023-02-01T01:07:35;3.00;99.90
39621;DHT22;25309;48.686;9.170;2023-02-01T01:10:02;3.00;99.90
39621;DHT22;25309;48.686;9.170;2023-02-01T01:12:29;3.00;99.90
39621;DHT22;25309;48.686;9.170;2023-02-01T01:14:56;3.00;99.90
39621;DHT22;25309;48.686;9.170;2023-02-01T01:17:23;3.10;99.90
39621;DHT22;25309;48.686;9.170;2023-02-01T01:19:51;3.10;99.90
39621;DHT22;25309;48.686;9.170;2023-02-01T01:22:18;3.10;99.90
39621;DHT22;25309;48.686;9.170;2023-02-01T01:24:45;3.10;99.90
39621;DHT22;25309;48.686;9.170;2023-02-01T01:27:12;3.10;99.90
39621;DHT22;25309;48.686;9.170;2023-02-01T01:29:39;3.10;99.90
39621;DHT22;25309;48.686;9.170;2023-02-01T01:32:06;3.10;99.90
39621;DHT22;25309;48.686;9.170;2023-02-01T01:34:33;3.10;99.90
39621;DHT22;25309;48.686;9.170;2023-02-01T01:37:01;3.10;99.90
39621;DHT22;25309;48.686;9.170;2023-02-01T01:39:29;3.10;99.90
39621;DHT22;25309;48.686;9.170;2023-02-01T01:41:57;3.10;99.90
39621;DHT22;25309;48.686;9.170;2023-02-01T01:44:58;3.10;99.90
39621;DHT22;25309;48.686;9.170;2023-02-01T01:47:28;3.20;99.90
39621;DHT22;25309;48.686;9.170;2023-02-01T01:49:56;3.20;99.90
39621;DHT22;25309;48.686;9.170;2023-02-01T01:52:24;3.20;99.90
39621;DHT22;25309;48.686;9.170;2023-02-01T01:54:53;3.30;99.90
39621;DHT22;25309;48.686;9.170;2023-02-01T01:57:24;3.30;99.90
39621;DHT22;25309;48.686;9.170;2023-02-01T01:59:55;3.30;99.90
39621;DHT22;25309;48.686;9.170;2023-02-01T02:02:26;3.30;99.90
39621;DHT22;25309;48.686;9.170;2023-02-01T02:04:52;3.30;99.90
39621;DHT22;25309;48.686;9.170;2023-02-01T02:07:25;3.30;99.90
39621;DHT22;25309;48.686;9.170;2023-02-01T02:09:53;3.30;99.90
39621;DHT22;25309;48.686;9.170;2023-02-01T02:12:27;3.20;99.90
39621;DHT22;25309;48.686;9.170;2023-02-01T02:14:55;3.30;99.90
39621;DHT22;25309;48.686;9.170;2023-02-01T02:17:36;3.20;99.90
39621;DHT22;25309;48.686;9.170;2023-02-01T02:20:31;3.20;99.90
39621;DHT22;25309;48.686;9.170;2023-02-01T02:23:36;3.30;99.90
39621;DHT22;25309;48.686;9.170;2023-02-01T02:26:29;3.30;99.90
39621;DHT22;25309;48.686;9.170;2023-02-01T02:32:21;3.30;99.90
39621;DHT22;25309;48.686;9.170;2023-02-01T02:34:55;3.30;99.90
39621;DHT22;25309;48.686;9.170;2023-02-01T02:37:31;3.40;99.90
39621;DHT22;25309;48.686;9.170;2023-02-01T02:40:06;3.40;99.90
39621;DHT22;25309;48.686;9.170;2023-02-01T02:42:40;3.40;99.90
39621;DHT22;25309;48.686;9.170;2023-02-01T02:45:30;3.40;99.90
39621;DHT22;25309;48.686;9.170;2023-02-01T02:48:25;3.40;99.90
39621;DHT22;25309;48.686;9.170;2023-02-01T02:50:59;3.40;99.90
39621;DHT22;25309;48.686;9.170;2023-02-01T02:53:51;3.40;99.90
39621;DHT22;25309;48.686;9.170;2023-02-01T02:56:38;3.40;99.90
39621;DHT22;25309;48.686;9.170;2023-02-01T02:59:26;3.40;99.90
39621;DHT22;25309;48.686;9.170;2023-02-01T03:02:14;3.50;99.90
39621;DHT22;25309;48.686;9.170;2023-02-01T03:04:59;3.40;99.90
39621;DHT22;25309;48.686;9.170;2023-02-01T03:07:53;3.40;99.90
39621;DHT22;25309;48.686;9.170;2023-02-01T03:10:27;3.40;99.90
39621;DHT22;25309;48.686;9.170;2023-02-01T03:13:02;3.50;99.90
39621;DHT22;25309;48.686;9.170;2023-02-01T03:15:34;3.50;99.90
39621;DHT22;25309;48.686;9.170;2023-02-01T03:18:05;3.50;99.90
39621;DHT22;25309;48.686;9.170;2023-02-01T03:20:34;3.50;99.90
39621;DHT22;25309;48.686;9.170;2023-02-01T03:23:05;3.50;99.90
39621;DHT22;25309;48.686;9.170;2023-02-01T03:25:34;3.50;99.90
39621;DHT22;25309;48.686;9.170;2023-02-01T03:28:04;3.50;99.90
39621;DHT22;25309;48.686;9.170;2023-02-01T03:30:35;3.50;99.90
39621;DHT22;25309;48.686;9.170;2023-02-01T03:33:05;3.50;99.90
39621;DHT22;25309;48.686;9.170;2023-02-01T03:35:44;3.60;99.90
39621;DHT22;25309;48.686;9.170;2023-02-01T03:38:18;3.60;99.90
39621;DHT22;25309;48.686;9.170;2023-02-01T03:40:51;3.60;99.90
39621;DHT22;25309;48.686;9.170;2023-02-01T03:43:20;3.60;99.90
39621;DHT22;25309;48.686;9.170;2023-02-01T03:45:50;3.70;99.90
39621;DHT22;25309;48.686;9.170;2023-02-01T03:48:21;3.60;99.90
39621;DHT22;25309;48.686;9.170;2023-02-01T03:50:52;3.60;99.90
39621;DHT22;25309;48.686;9.170;2023-02-01T03:53:23;3.50;99.90
39621;DHT22;25309;48.686;9.170;2023-02-01T03:55:52;3.50;99.90
39621;DHT22;25309;48.686;9.170;2023-02-01T03:58:21;3.60;99.90
39621;DHT22;25309;48.686;9.170;2023-02-01T04:00:51;3.50;99.90
39621;DHT22;25309;48.686;9.170;2023-02-01T04:03:18;3.50;99.90
39621;DHT22;25309;48.686;9.170;2023-02-01T04:05:45;3.50;99.90
39621;DHT22;25309;48.686;9.170;2023-02-01T04:08:12;3.50;99.90
39621;DHT22;25309;48.686;9.170;2023-02-01T04:10:40;3.50;99.90
39621;DHT22;25309;48.686;9.170;2023-02-01T04:13:07;3.50;99.90
39621;DHT22;25309;48.686;9.170;2023-02-01T04:15:34;3.50;99.90
39621;DHT22;25309;48.686;9.170;2023-02-01T04:18:01;3.50;99.90
39621;DHT22;25309;48.686;9.170;2023-02-01T04:20:28;3.60;99.90
39621;DHT22;25309;48.686;9.170;2023-02-01T04:22:55;3.60;99.90
39621;DHT22;25309;48.686;9.170;2023-02-01T04:25:22;3.60;99.90
39621;DHT22;25309;48.686;9.170;2023-02-01T04:27:51;3.70;99.90
39621;DHT22;25309;48.686;9.170;2023-02-01T04:30:17;3.70;99.90
39621;DHT22;25309;48.686;9.170;2023-02-01T04:32:45;3.70;99.90
39621;DHT22;25309;48.686;9.170;2023-02-01T04:35:11;3.70;99.90
39621;DHT22;25309;48.686;9.170;2023-02-01T04:37:38;3.70;99.90
39621;DHT22;25309;48.686;9.170;2023-02-01T04:40:06;3.80;99.90
39621;DHT22;25309;48.686;9.170;2023-02-01T04:42:33;3.70;99.90
39621;DHT22;25309;48.686;9.170;2023-02-01T04:45:02;3.70;99.90
39621;DHT22;25309;48.686;9.170;2023-02-01T04:47:29;3.80;99.90
39621;DHT22;25309;48.686;9.170;2023-02-01T04:49:56;3.80;99.90
39621;DHT22;25309;48.686;9.170;2023-02-01T04:52:22;3.80;99.90
39621;DHT22;25309;48.686;9.170;2023-02-01T04:54:49;3.80;99.90
39621;DHT22;25309;48.686;9.170;2023-02-01T04:57:16;3.80;99.90
39621;DHT22;25309;48.686;9.170;2023-02-01T04:59:43;3.80;99.90
39621;DHT22;25309;48.686;9.170;2023-02-01T05:02:11;3.80;99.90
39621;DHT22;25309;48.686;9.170;2023-02-01T05:04:38;3.90;99.90
39621;DHT22;25309;48.686;9.170;2023-02-01T05:07:05;3.90;99.90
39621;DHT22;25309;48.686;9.170;2023-02-01T05:09:32;3.90;99.90
39621;DHT22;25309;48.686;9.170;2023-02-01T05:12:00;3.90;99.90
39621;DHT22;25309;48.686;9.170;2023-02-01T05:14:45;3.90;99.90
39621;DHT22;25309;48.686;9.170;2023-02-01T05:17:13;3.80;99.90
39621;DHT22;25309;48.686;9.170;2023-02-01T05:19:40;3.80;99.90
39621;DHT22;25309;48.686;9.170;2023-02-01T05:22:07;3.70;99.90
39621;DHT22;25309;48.686;9.170;2023-02-01T05:24:34;3.70;99.90
39621;DHT22;25309;48.686;9.170;2023-02-01T05:27:01;3.70;99.90
39621;DHT22;25309;48.686;9.170;2023-02-01T05:29:28;3.70;99.90
39621;DHT22;25309;48.686;9.170;2023-02-01T05:31:55;3.70;99.90
39621;DHT22;25309;48.686;9.170;2023-02-01T05:34:25;3.80;99.90
39621;DHT22;25309;48.686;9.170;2023-02-01T05:36:51;3.80;99.90
39621;DHT22;25309;48.686;9.170;2023-02-01T05:39:18;3.80;99.90
39621;DHT22;25309;48.686;9.170;2023-02-01T05:41:45;3.90;99.90
39621;DHT22;25309;48.686;9.170;2023-02-01T05:44:12;3.90;99.90
39621;DHT22;25309;48.686;9.170;2023-02-01T05:46:39;3.90;99.90
39621;DHT22;25309;48.686;9.170;2023-02-01T05:49:06;3.90;99.90
39621;DHT22;25309;48.686;9.170;2023-02-01T05:51:35;3.90;99.90
39621;DHT22;25309;48.686;9.170;2023-02-01T05:54:02;3.90;99.90
39621;DHT22;25309;48.686;9.170;2023-02-01T05:56:29;3.80;99.90
39621;DHT22;25309;48.686;9.170;2023-02-01T05:58:56;3.70;99.90
39621;DHT22;25309;48.686;9.170;2023-02-01T06:01:23;3.70;99.90
39621;DHT22;25309;48.686;9.170;2023-02-01T06:03:50;3.60;99.90
39621;DHT22;25309;48.686;9.170;2023-02-01T06:06:17;3.60;99.90
39621;DHT22;25309;48.686;9.170;2023-02-01T06:08:46;3.50;99.90
39621;DHT22;25309;48.686;9.170;2023-02-01T06:11:13;3.50;99.90
39621;DHT22;25309;48.686;9.170;2023-02-01T06:13:57;3.50;99.90
39621;DHT22;25309;48.686;9.170;2023-02-01T06:16:24;3.50;99.90
39621;DHT22;25309;48.686;9.170;2023-02-01T06:18:51;3.50;99.90
39621;DHT22;25309;48.686;9.170;2023-02-01T06:21:18;3.40;99.90
39621;DHT22;25309;48.686;9.170;2023-02-01T06:23:53;3.30;99.90
39621;DHT22;25309;48.686;9.170;2023-02-01T06:26:21;3.30;99.90
39621;DHT22;25309;48.686;9.170;2023-02-01T06:28:49;3.30;99.90
39621;DHT22;25309;48.686;9.170;2023-02-01T06:31:16;3.30;99.90
39621;DHT22;25309;48.686;9.170;2023-02-01T06:33:43;3.30;99.90
39621;DHT22;25309;48.686;9.170;2023-02-01T06:36:10;3.30;99.90
39621;DHT22;25309;48.686;9.170;2023-02-01T06:38:39;3.30;99.90
39621;DHT22;25309;48.686;9.170;2023-02-01T06:41:07;3.30;99.90
39621;DHT22;25309;48.686;9.170;2023-02-01T06:43:35;3.30;99.90
39621;DHT22;25309;48.686;9.170;2023-02-01T06:46:05;3.30;99.90
39621;DHT22;25309;48.686;9.170;2023-02-01T06:48:33;3.40;99.90
39621;DHT22;25309;48.686;9.170;2023-02-01T06:51:00;3.40;99.90
39621;DHT22;25309;48.686;9.170;2023-02-01T06:53:27;3.40;99.90
39621;DHT22;25309;48.686;9.170;2023-02-01T06:55:55;3.50;99.90
39621;DHT22;25309;48.686;9.170;2023-02-01T06:58:24;3.50;99.90
39621;DHT22;25309;48.686;9.170;2023-02-01T07:00:51;3.50;99.90
39621;DHT22;25309;48.686;9.170;2023-02-01T07:03:20;3.60;99.90
39621;DHT22;25309;48.686;9.170;2023-02-01T07:05:47;3.60;99.90
39621;DHT22;25309;48.686;9.170;2023-02-01T07:08:14;3.60;99.90
39621;DHT22;25309;48.686;9.170;2023-02-01T07:10:41;3.70;99.90
39621;DHT22;25309;48.686;9.170;2023-02-01T07:13:08;3.70;99.90
39621;DHT22;25309;48.686;9.170;2023-02-01T07:15:36;3.70;99.90
39621;DHT22;25309;48.686;9.170;2023-02-01T07:18:03;3.80;99.90
39621;DHT22;25309;48.686;9.170;2023-02-01T07:20:30;3.80;99.90
39621;DHT22;25309;48.686;9.170;2023-02-01T07:22:57;3.80;99.90
39621;DHT22;25309;48.686;9.170;2023-02-01T07:25:24;3.90;99.90
39621;DHT22;25309;48.686;9.170;2023-02-01T07:27:51;3.90;99.90
39621;DHT22;25309;48.686;9.170;2023-02-01T07:30:18;3.90;99.90
39621;DHT22;25309;48.686;9.170;2023-02-01T07:32:46;4.00;99.90
39621;DHT22;25309;48.686;9.170;2023-02-01T07:35:13;4.00;99.90
39621;DHT22;25309;48.686;9.170;2023-02-01T07:37:40;4.00;99.90
39621;DHT22;25309;48.686;9.170;2023-02-01T07:40:09;4.00;99.90
39621;DHT22;25309;48.686;9.170;2023-02-01T07:42:36;4.10;99.90
39621;DHT22;25309;48.686;9.170;2023-02-01T07:45:04;4.10;99.90
39621;DHT22;25309;48.686;9.170;2023-02-01T07:47:48;4.20;99.90
39621;DHT22;25309;48.686;9.170;2023-02-01T07:50:16;4.20;99.90
39621;DHT22;25309;48.686;9.170;2023-02-01T07:52:43;4.20;99.90
39621;DHT22;25309;48.686;9.170;2023-02-01T07:55:10;4.20;99.90
39621;DHT22;25309;48.686;9.170;2023-02-01T07:57:37;4.30;99.90
39621;DHT22;25309;48.686;9.170;2023-02-01T08:00:05;4.30;99.90
39621;DHT22;25309;48.686;9.170;2023-02-01T08:02:52;4.30;99.90
39621;DHT22;25309;48.686;9.170;2023-02-01T08:05:19;4.30;99.90
39621;DHT22;25309;48.686;9.170;2023-02-01T08:07:48;4.30;99.90
39621;DHT22;25309;48.686;9.170;2023-02-01T08:10:16;4.40;99.90
39621;DHT22;25309;48.686;9.170;2023-02-01T08:12:44;4.40;99.90
39621;DHT22;25309;48.686;9.170;2023-02-01T08:15:14;4.40;99.90
39621;DHT22;25309;48.686;9.170;2023-02-01T08:17:46;4.50;99.90
39621;DHT22;25309;48.686;9.170;2023-02-01T08:20:15;4.40;99.90
39621;DHT22;25309;48.686;9.170;2023-02-01T08:22:43;4.40;99.90
39621;DHT22;25309;48.686;9.170;2023-02-01T08:25:10;4.50;99.90
39621;DHT22;25309;48.686;9.170;2023-02-01T08:27:37;4.50;99.90
39621;DHT22;25309;48.686;9.170;2023-02-01T08:30:06;4.50;99.90
39621;DHT22;25309;48.686;9.170;2023-02-01T08:32:34;4.50;99.90
39621;DHT22;25309;48.686;9.170;2023-02-01T08:35:01;4.50;99.90
39621;DHT22;25309;48.686;9.170;2023-02-01T08:37:29;4.50;99.90
39621;DHT22;25309;48.686;9.170;2023-02-01T08:39:56;4.50;99.90
39621;DHT22;25309;48.686;9.170;2023-02-01T08:42:23;4.60;99.90
39621;DHT22;25309;48.686;9.170;2023-02-01T08:45:10;4.60;99.90
39621;DHT22;25309;48.686;9.170;2023-02-01T08:47:36;4.70;99.90
39621;DHT22;25309;48.686;9.170;2023-02-01T08:50:04;4.70;99.90
39621;DHT22;25309;48.686;9.170;2023-02-01T08:52:32;4.80;99.90
39621;DHT22;25309;48.686;9.170;2023-02-01T08:54:59;4.80;99.90
39621;DHT22;25309;48.686;9.170;2023-02-01T08:57:26;4.90;99.90
39621;DHT22;25309;48.686;9.170;2023-02-01T08:59:54;4.90;99.90
39621;DHT22;25309;48.686;9.170;2023-02-01T09:02:21;5.00;99.90
39621;DHT22;25309;48.686;9.170;2023-02-01T09:04:47;5.00;99.90
39621;DHT22;25309;48.686;9.170;2023-02-01T09:07:14;5.00;99.90
39621;DHT22;25309;48.686;9.170;2023-02-01T09:09:45;5.00;99.90
39621;DHT22;25309;48.686;9.170;2023-02-01T09:12:11;5.00;99.90
39621;DHT22;25309;48.686;9.170;2023-02-01T09:14:38;5.00;99.90
39621;DHT22;25309;48.686;9.170;2023-02-01T09:17:05;5.00;99.90
39621;DHT22;25309;48.686;9.170;2023-02-01T09:19:33;5.00;99.90
39621;DHT22;25309;48.686;9.170;2023-02-01T09:22:00;5.00;99.90
39621;DHT22;25309;48.686;9.170;2023-02-01T09:24:27;5.00;99.90
39621;DHT22;25309;48.686;9.170;2023-02-01T09:26:55;5.00;99.90
39621;DHT22;25309;48.686;9.170;2023-02-01T09:29:22;5.00;99.90
39621;DHT22;25309;48.686;9.170;2023-02-01T09:31:49;5.00;99.90
39621;DHT22;25309;48.686;9.170;2023-02-01T09:34:29;5.00;99.90
39621;DHT22;25309;48.686;9.170;2023-02-01T09:36:56;5.00;99.90
39621;DHT22;25309;48.686;9.170;2023-02-01T09:39:23;5.10;99.90
39621;DHT22;25309;48.686;9.170;2023-02-01T09:41:59;5.00;99.90
39621;DHT22;25309;48.686;9.170;2023-02-01T09:44:43;5.10;99.90
39621;DHT22;25309;48.686;9.170;2023-02-01T09:47:17;5.10;99.90
39621;DHT22;25309;48.686;9.170;2023-02-01T09:49:50;5.10;99.90
39621;DHT22;25309;48.686;9.170;2023-02-01T09:52:25;5.00;99.90
39621;DHT22;25309;48.686;9.170;2023-02-01T09:54:58;5.10;99.90
39621;DHT22;25309;48.686;9.170;2023-02-01T09:57:40;5.10;99.90
39621;DHT22;25309;48.686;9.170;2023-02-01T10:00:15;5.10;99.90
39621;DHT22;25309;48.686;9.170;2023-02-01T10:02:43;5.20;99.90
39621;DHT22;25309;48.686;9.170;2023-02-01T10:05:13;5.20;99.90
39621;DHT22;25309;48.686;9.170;2023-02-01T10:07:45;5.20;99.90
39621;DHT22;25309;48.686;9.170;2023-02-01T10:10:20;5.20;99.90
39621;DHT22;25309;48.686;9.170;2023-02-01T10:15:59;5.30;99.90
39621;DHT22;25309;48.686;9.170;2023-02-01T10:18:47;5.30;99.90
39621;DHT22;25309;48.686;9.170;2023-02-01T10:21:26;5.30;99.90
39621;DHT22;25309;48.686;9.170;2023-02-01T10:27:02;5.40;99.90
39621;DHT22;25309;48.686;9.170;2023-02-01T10:29:38;5.40;99.90
39621;DHT22;25309;48.686;9.170;2023-02-01T10:32:13;5.50;99.90
39621;DHT22;25309;48.686;9.170;2023-02-01T10:34:41;5.50;99.90
39621;DHT22;25309;48.686;9.170;2023-02-01T10:37:17;5.50;99.90
39621;DHT22;25309;48.686;9.170;2023-02-01T10:39:46;5.50;99.90
39621;DHT22;25309;48.686;9.170;2023-02-01T10:42:14;5.40;99.90
39621;DHT22;25309;48.686;9.170;2023-02-01T10:44:45;5.40;99.90
39621;DHT22;25309;48.686;9.170;2023-02-01T10:47:14;5.40;99.90
39621;DHT22;25309;48.686;9.170;2023-02-01T10:49:47;5.50;99.90
39621;DHT22;25309;48.686;9.170;2023-02-01T10:52:19;5.50;99.90
39621;DHT22;25309;48.686;9.170;2023-02-01T10:54:47;5.50;99.90
39621;DHT22;25309;48.686;9.170;2023-02-01T10:57:21;5.60;99.90
39621;DHT22;25309;48.686;9.170;2023-02-01T10:59:49;5.60;99.90
39621;DHT22;25309;48.686;9.170;2023-02-01T11:02:22;5.60;99.90
39621;DHT22;25309;48.686;9.170;2023-02-01T11:04:59;5.60;99.90
39621;DHT22;25309;48.686;9.170;2023-02-01T11:07:27;5.60;99.90
39621;DHT22;25309;48.686;9.170;2023-02-01T11:09:55;5.70;99.90
39621;DHT22;25309;48.686;9.170;2023-02-01T11:12:28;5.70;99.90
39621;DHT22;25309;48.686;9.170;2023-02-01T11:15:03;5.70;99.90
39621;DHT22;25309;48.686;9.170;2023-02-01T11:17:42;5.70;99.90
39621;DHT22;25309;48.686;9.170;2023-02-01T11:20:13;5.80;99.90
39621;DHT22;25309;48.686;9.170;2023-02-01T11:22:46;5.90;99.90
39621;DHT22;25309;48.686;9.170;2023-02-01T11:25:16;5.90;99.90
39621;DHT22;25309;48.686;9.170;2023-02-01T11:27:43;6.00;99.90
39621;DHT22;25309;48.686;9.170;2023-02-01T11:30:31;6.00;99.90
39621;DHT22;25309;48.686;9.170;2023-02-01T11:32:59;6.10;99.90
39621;DHT22;25309;48.686;9.170;2023-02-01T11:35:28;6.10;99.90
39621;DHT22;25309;48.686;9.170;2023-02-01T11:37:58;6.10;99.90
39621;DHT22;25309;48.686;9.170;2023-02-01T11:40:27;6.10;99.90
39621;DHT22;25309;48.686;9.170;2023-02-01T11:42:56;6.10;99.90
39621;DHT22;25309;48.686;9.170;2023-02-01T11:45:27;6.10;99.90
39621;DHT22;25309;48.686;9.170;2023-02-01T11:47:55;6.10;99.90
39621;DHT22;25309;48.686;9.170;2023-02-01T11:50:28;6.10;99.90
39621;DHT22;25309;48.686;9.170;2023-02-01T11:53:19;6.10;99.90
39621;DHT22;25309;48.686;9.170;2023-02-01T11:55:56;6.10;99.90
39621;DHT22;25309;48.686;9.170;2023-02-01T11:58:41;6.10;99.90
39621;DHT22;25309;48.686;9.170;2023-02-01T12:01:30;6.10;99.90
39621;DHT22;25309;48.686;9.170;2023-02-01T12:04:23;6.10;99.90
39621;DHT22;25309;48.686;9.170;2023-02-01T12:06:58;6.10;99.90
39621;DHT22;25309;48.686;9.170;2023-02-01T12:09:38;6.00;99.90
39621;DHT22;25309;48.686;9.170;2023-02-01T12:12:17;6.00;99.90
39621;DHT22;25309;48.686;9.170;2023-02-01T12:15:03;6.00;99.90
39621;DHT22;25309;48.686;9.170;2023-02-01T12:17:52;6.00;99.90
39621;DHT22;25309;48.686;9.170;2023-02-01T12:20:41;6.00;99.90
39621;DHT22;25309;48.686;9.170;2023-02-01T12:23:25;6.00;99.90
39621;DHT22;25309;48.686;9.170;2023-02-01T12:26:28;6.00;99.90
39621;DHT22;25309;48.686;9.170;2023-02-01T12:29:24;6.00;99.90
39621;DHT22;25309;48.686;9.170;2023-02-01T12:32:03;6.00;99.90
39621;DHT22;25309;48.686;9.170;2023-02-01T12:34:49;6.00;99.90
39621;DHT22;25309;48.686;9.170;2023-02-01T12:37:27;6.00;99.90
39621;DHT22;25309;48.686;9.170;2023-02-01T12:40:02;5.90;99.90
39621;DHT22;25309;48.686;9.170;2023-02-01T12:42:37;5.90;99.90
39621;DHT22;25309;48.686;9.170;2023-02-01T12:45:12;5.90;99.90
39621;DHT22;25309;48.686;9.170;2023-02-01T12:47:44;5.90;99.90
39621;DHT22;25309;48.686;9.170;2023-02-01T12:50:19;5.90;99.90
39621;DHT22;25309;48.686;9.170;2023-02-01T12:52:50;5.90;99.90
39621;DHT22;25309;48.686;9.170;2023-02-01T12:55:22;5.90;99.90
39621;DHT22;25309;48.686;9.170;2023-02-01T12:57:52;5.90;99.90
39621;DHT22;25309;48.686;9.170;2023-02-01T13:00:26;6.00;99.90
39621;DHT22;25309;48.686;9.170;2023-02-01T13:02:59;6.00;99.90
39621;DHT22;25309;48.686;9.170;2023-02-01T13:05:34;6.00;99.90
39621;DHT22;25309;48.686;9.170;2023-02-01T13:08:06;5.90;99.90
39621;DHT22;25309;48.686;9.170;2023-02-01T13:10:36;5.90;99.90
39621;DHT22;25309;48.686;9.170;2023-02-01T13:13:11;5.90;99.90
39621;DHT22;25309;48.686;9.170;2023-02-01T13:15:42;5.90;99.90
39621;DHT22;25309;48.686;9.170;2023-02-01T13:18:15;5.90;99.90
39621;DHT22;25309;48.686;9.170;2023-02-01T13:20:48;5.90;99.90
39621;DHT22;25309;48.686;9.170;2023-02-01T13:23:22;5.90;99.90
39621;DHT22;25309;48.686;9.170;2023-02-01T13:25:51;5.90;99.90
39621;DHT22;25309;48.686;9.170;2023-02-01T13:28:23;5.80;99.90
39621;DHT22;25309;48.686;9.170;2023-02-01T13:31:05;5.80;99.90
39621;DHT22;25309;48.686;9.170;2023-02-01T13:33:47;5.80;99.90
39621;DHT22;25309;48.686;9.170;2023-02-01T13:36:38;5.80;99.90
39621;DHT22;25309;48.686;9.170;2023-02-01T13:42:17;5.80;99.90
39621;DHT22;25309;48.686;9.170;2023-02-01T13:44:46;5.80;99.90
39621;DHT22;25309;48.686;9.170;2023-02-01T13:47:24;5.80;99.90
39621;DHT22;25309;48.686;9.170;2023-02-01T13:49:54;5.80;99.90
39621;DHT22;25309;48.686;9.170;2023-02-01T13:52:29;5.80;99.90
39621;DHT22;25309;48.686;9.170;2023-02-01T13:55:13;5.80;99.90
39621;DHT22;25309;48.686;9.170;2023-02-01T13:57:42;5.80;99.90
39621;DHT22;25309;48.686;9.170;2023-02-01T14:00:24;5.80;99.90
39621;DHT22;25309;48.686;9.170;2023-02-01T14:03:13;5.80;99.90
39621;DHT22;25309;48.686;9.170;2023-02-01T14:06:02;5.80;99.90
39621;DHT22;25309;48.686;9.170;2023-02-01T14:08:43;5.80;99.90
39621;DHT22;25309;48.686;9.170;2023-02-01T14:11:37;5.70;99.90
39621;DHT22;25309;48.686;9.170;2023-02-01T14:17:35;5.70;99.90
39621;DHT22;25309;48.686;9.170;2023-02-01T14:23:20;5.70;99.90
39621;DHT22;25309;48.686;9.170;2023-02-01T14:26:04;5.70;99.90
39621;DHT22;25309;48.686;9.170;2023-02-01T14:28:31;5.70;99.90
39621;DHT22;25309;48.686;9.170;2023-02-01T14:30:58;5.70;99.90
39621;DHT22;25309;48.686;9.170;2023-02-01T14:33:27;5.70;99.90
39621;DHT22;25309;48.686;9.170;2023-02-01T14:36:06;5.70;99.90
39621;DHT22;25309;48.686;9.170;2023-02-01T14:38:36;5.70;99.90
39621;DHT22;25309;48.686;9.170;2023-02-01T14:41:18;5.70;99.90
39621;DHT22;25309;48.686;9.170;2023-02-01T14:43:59;5.70;99.90
39621;DHT22;25309;48.686;9.170;2023-02-01T14:47:10;5.70;99.90
39621;DHT22;25309;48.686;9.170;2023-02-01T14:49:42;5.70;99.90
39621;DHT22;25309;48.686;9.170;2023-02-01T14:52:17;5.70;99.90
39621;DHT22;25309;48.686;9.170;2023-02-01T14:54:48;5.60;99.90
39621;DHT22;25309;48.686;9.170;2023-02-01T14:57:18;5.60;99.90
39621;DHT22;25309;48.686;9.170;2023-02-01T14:59:46;5.60;99.90
39621;DHT22;25309;48.686;9.170;2023-02-01T15:02:21;5.70;99.90
39621;DHT22;25309;48.686;9.170;2023-02-01T15:04:54;5.70;99.90
39621;DHT22;25309;48.686;9.170;2023-02-01T15:07:22;5.70;99.90
39621;DHT22;25309;48.686;9.170;2023-02-01T15:09:52;5.70;99.90
39621;DHT22;25309;48.686;9.170;2023-02-01T15:12:23;5.70;99.90
39621;DHT22;25309;48.686;9.170;2023-02-01T15:15:11;5.70;99.90
39621;DHT22;25309;48.686;9.170;2023-02-01T15:17:38;5.70;99.90
39621;DHT22;25309;48.686;9.170;2023-02-01T15:20:13;5.70;99.90
39621;DHT22;25309;48.686;9.170;2023-02-01T15:22:52;5.70;99.90
39621;DHT22;25309;48.686;9.170;2023-02-01T15:25:21;5.70;99.90
39621;DHT22;25309;48.686;9.170;2023-02-01T15:27:51;5.70;99.90
39621;DHT22;25309;48.686;9.170;2023-02-01T15:30:21;5.80;99.90
39621;DHT22;25309;48.686;9.170;2023-02-01T15:32:49;5.80;99.90
39621;DHT22;25309;48.686;9.170;2023-02-01T15:35:37;5.80;99.90
39621;DHT22;25309;48.686;9.170;2023-02-01T15:38:30;5.70;99.90
39621;DHT22;25309;48.686;9.170;2023-02-01T15:40:59;5.80;99.90
39621;DHT22;25309;48.686;9.170;2023-02-01T15:43:29;5.80;99.90
39621;DHT22;25309;48.686;9.170;2023-02-01T15:45:58;5.80;99.90
39621;DHT22;25309;48.686;9.170;2023-02-01T15:48:34;5.80;99.90
39621;DHT22;25309;48.686;9.170;2023-02-01T15:51:02;5.80;99.90
39621;DHT22;25309;48.686;9.170;2023-02-01T15:53:29;5.80;99.90
39621;DHT22;25309;48.686;9.170;2023-02-01T15:56:00;5.70;99.90
39621;DHT22;25309;48.686;9.170;2023-02-01T15:58:29;5.60;99.90
39621;DHT22;25309;48.686;9.170;2023-02-01T16:01:00;5.60;99.90
39621;DHT22;25309;48.686;9.170;2023-02-01T16:03:34;5.60;99.90
39621;DHT22;25309;48.686;9.170;2023-02-01T16:06:04;5.50;99.90
39621;DHT22;25309;48.686;9.170;2023-02-01T16:08:31;5.50;99.90
39621;DHT22;25309;48.686;9.170;2023-02-01T16:11:14;5.50;99.90
39621;DHT22;25309;48.686;9.170;2023-02-01T16:13:48;5.50;99.90
39621;DHT22;25309;48.686;9.170;2023-02-01T16:16:15;5.50;99.90
39621;DHT22;25309;48.686;9.170;2023-02-01T16:18:42;5.50;99.90
39621;DHT22;25309;48.686;9.170;2023-02-01T16:21:09;5.50;99.90
39621;DHT22;25309;48.686;9.170;2023-02-01T16:23:36;5.60;99.90
39621;DHT22;25309;48.686;9.170;2023-02-01T16:26:04;5.60;99.90
39621;DHT22;25309;48.686;9.170;2023-02-01T16:28:32;5.50;99.90
39621;DHT22;25309;48.686;9.170;2023-02-01T16:31:01;5.50;99.90
39621;DHT22;25309;48.686;9.170;2023-02-01T16:33:28;5.50;99.90